sensor_id;sensor_type;location;lat;lon;timestamp;P1;durP1;ratioP1;P2;durP2;ratioP2
7985;SDS011;4038;42.612;23.066;2022-11-15T00:01:44;46.27;;;39.50;;
7985;SDS011;4038;42.612;23.066;2022-11-15T00:04:10;44.13;;;38.40;;
7985;SDS011;4038;42.612;23.066;2022-11-15T00:06:35;43.97;;;37.23;;
7985;SDS011;4038;42.612;23.066;2022-11-15T00:09:02;40.23;;;36.00;;
7985;SDS011;4038;42.612;23.066;2022-11-15T00:11:27;42.93;;;38.13;;
7985;SDS011;4038;42.612;23.066;2022-11-15T00:13:56;43.27;;;38.63;;
7985;SDS011;4038;42.612;23.066;2022-11-15T00:16:23;44.97;;;40.20;;
7985;SDS011;4038;42.612;23.066;2022-11-15T00:18:48;42.77;;;38.53;;
7985;SDS011;4038;42.612;23.066;2022-11-15T00:21:14;46.53;;;38.97;;
7985;SDS011;4038;42.612;23.066;2022-11-15T00:23:40;43.07;;;38.40;;
7985;SDS011;4038;42.612;23.066;2022-11-15T00:26:06;42.27;;;37.83;;
7985;SDS011;4038;42.612;23.066;2022-11-15T00:28:35;41.90;;;37.80;;
7985;SDS011;4038;42.612;23.066;2022-11-15T00:31:02;44.23;;;39.73;;
7985;SDS011;4038;42.612;23.066;2022-11-15T00:33:28;41.60;;;37.33;;
7985;SDS011;4038;42.612;23.066;2022-11-15T00:36:07;40.20;;;36.23;;
7985;SDS011;4038;42.612;23.066;2022-11-15T00:38:35;39.63;;;35.87;;
7985;SDS011;4038;42.612;23.066;2022-11-15T00:41:02;43.60;;;38.87;;
7985;SDS011;4038;42.612;23.066;2022-11-15T00:43:29;40.03;;;35.87;;
7985;SDS011;4038;42.612;23.066;2022-11-15T00:45:55;44.30;;;39.53;;
7985;SDS011;4038;42.612;23.066;2022-11-15T00:48:20;52.97;;;42.93;;
7985;SDS011;4038;42.612;23.066;2022-11-15T00:50:46;46.83;;;40.10;;
7985;SDS011;4038;42.612;23.066;2022-11-15T00:53:12;42.20;;;37.47;;
7985;SDS011;4038;42.612;23.066;2022-11-15T00:55:37;41.63;;;37.53;;
7985;SDS011;4038;42.612;23.066;2022-11-15T00:58:02;42.97;;;38.43;;
7985;SDS011;4038;42.612;23.066;2022-11-15T01:00:28;44.73;;;40.33;;
7985;SDS011;4038;42.612;23.066;2022-11-15T01:02:53;45.13;;;40.33;;
7985;SDS011;4038;42.612;23.066;2022-11-15T01:05:19;48.40;;;43.20;;
7985;SDS011;4038;42.612;23.066;2022-11-15T01:07:44;46.30;;;41.53;;
7985;SDS011;4038;42.612;23.066;2022-11-15T01:10:10;40.43;;;36.20;;
7985;SDS011;4038;42.612;23.066;2022-11-15T01:12:35;40.93;;;37.00;;
7985;SDS011;4038;42.612;23.066;2022-11-15T01:15:01;41.03;;;36.70;;
7985;SDS011;4038;42.612;23.066;2022-11-15T01:17:27;40.60;;;36.50;;
7985;SDS011;4038;42.612;23.066;2022-11-15T01:19:52;43.33;;;39.10;;
7985;SDS011;4038;42.612;23.066;2022-11-15T01:22:17;40.37;;;36.37;;
7985;SDS011;4038;42.612;23.066;2022-11-15T01:24:43;39.23;;;35.10;;
7985;SDS011;4038;42.612;23.066;2022-11-15T01:27:08;40.23;;;36.30;;
7985;SDS011;4038;42.612;23.066;2022-11-15T01:29:34;41.00;;;36.77;;
7985;SDS011;4038;42.612;23.066;2022-11-15T01:32:00;41.90;;;37.07;;
7985;SDS011;4038;42.612;23.066;2022-11-15T01:34:25;39.87;;;35.67;;
7985;SDS011;4038;42.612;23.066;2022-11-15T01:36:51;39.73;;;36.03;;
7985;SDS011;4038;42.612;23.066;2022-11-15T01:39:16;41.87;;;37.80;;
7985;SDS011;4038;42.612;23.066;2022-11-15T01:41:42;43.73;;;38.87;;
7985;SDS011;4038;42.612;23.066;2022-11-15T01:47:18;37.23;;;33.80;;
7985;SDS011;4038;42.612;23.066;2022-11-15T01:50:09;36.83;;;33.23;;
7985;SDS011;4038;42.612;23.066;2022-11-15T01:52:37;39.10;;;35.03;;
7985;SDS011;4038;42.612;23.066;2022-11-15T01:57:34;37.47;;;33.60;;
7985;SDS011;4038;42.612;23.066;2022-11-15T02:00:00;37.50;;;33.90;;
7985;SDS011;4038;42.612;23.066;2022-11-15T02:02:29;38.47;;;34.40;;
7985;SDS011;4038;42.612;23.066;2022-11-15T02:04:54;37.67;;;33.87;;
7985;SDS011;4038;42.612;23.066;2022-11-15T02:07:20;36.00;;;32.57;;
7985;SDS011;4038;42.612;23.066;2022-11-15T02:09:46;36.20;;;32.73;;
7985;SDS011;4038;42.612;23.066;2022-11-15T02:12:13;34.73;;;31.33;;
7985;SDS011;4038;42.612;23.066;2022-11-15T02:14:44;36.43;;;33.00;;
7985;SDS011;4038;42.612;23.066;2022-11-15T02:39:10;37.87;;;34.07;;
7985;SDS011;4038;42.612;23.066;2022-11-15T02:41:54;36.93;;;33.40;;
7985;SDS011;4038;42.612;23.066;2022-11-15T02:44:30;34.03;;;30.83;;
7985;SDS011;4038;42.612;23.066;2022-11-15T02:47:03;35.80;;;32.37;;
7985;SDS011;4038;42.612;23.066;2022-11-15T02:49:37;33.90;;;30.90;;
7985;SDS011;4038;42.612;23.066;2022-11-15T02:52:05;35.97;;;32.60;;
7985;SDS011;4038;42.612;23.066;2022-11-15T02:54:31;35.33;;;32.13;;
7985;SDS011;4038;42.612;23.066;2022-11-15T02:57:10;36.10;;;32.63;;
7985;SDS011;4038;42.612;23.066;2022-11-15T03:08:19;36.40;;;32.80;;
7985;SDS011;4038;42.612;23.066;2022-11-15T03:11:17;35.70;;;32.27;;
7985;SDS011;4038;42.612;23.066;2022-11-15T03:16:47;36.23;;;32.93;;
7985;SDS011;4038;42.612;23.066;2022-11-15T03:22:02;34.60;;;31.27;;
7985;SDS011;4038;42.612;23.066;2022-11-15T03:24:33;36.67;;;33.07;;
7985;SDS011;4038;42.612;23.066;2022-11-15T03:27:02;36.27;;;32.80;;
7985;SDS011;4038;42.612;23.066;2022-11-15T03:29:35;37.63;;;33.63;;
7985;SDS011;4038;42.612;23.066;2022-11-15T03:32:15;39.53;;;35.37;;
7985;SDS011;4038;42.612;23.066;2022-11-15T03:34:47;38.80;;;34.20;;
7985;SDS011;4038;42.612;23.066;2022-11-15T03:37:17;38.03;;;34.17;;
7985;SDS011;4038;42.612;23.066;2022-11-15T03:39:47;38.97;;;35.07;;
7985;SDS011;4038;42.612;23.066;2022-11-15T03:47:54;36.37;;;32.63;;
7985;SDS011;4038;42.612;23.066;2022-11-15T03:50:25;38.23;;;34.33;;
7985;SDS011;4038;42.612;23.066;2022-11-15T03:52:51;37.33;;;33.67;;
7985;SDS011;4038;42.612;23.066;2022-11-15T03:55:24;37.93;;;34.00;;
7985;SDS011;4038;42.612;23.066;2022-11-15T03:57:51;39.47;;;35.33;;
7985;SDS011;4038;42.612;23.066;2022-11-15T04:00:21;39.27;;;34.80;;
7985;SDS011;4038;42.612;23.066;2022-11-15T04:02:47;38.00;;;34.23;;
7985;SDS011;4038;42.612;23.066;2022-11-15T04:05:12;39.67;;;35.43;;
7985;SDS011;4038;42.612;23.066;2022-11-15T04:07:37;38.13;;;34.13;;
7985;SDS011;4038;42.612;23.066;2022-11-15T04:10:03;42.47;;;38.03;;
7985;SDS011;4038;42.612;23.066;2022-11-15T04:12:30;38.70;;;34.60;;
7985;SDS011;4038;42.612;23.066;2022-11-15T04:15:10;40.10;;;35.93;;
7985;SDS011;4038;42.612;23.066;2022-11-15T04:23:03;43.83;;;37.70;;
7985;SDS011;4038;42.612;23.066;2022-11-15T04:25:53;46.03;;;40.10;;
7985;SDS011;4038;42.612;23.066;2022-11-15T04:28:20;45.73;;;40.23;;
7985;SDS011;4038;42.612;23.066;2022-11-15T04:30:45;53.53;;;40.97;;
7985;SDS011;4038;42.612;23.066;2022-11-15T04:33:11;46.63;;;40.93;;
7985;SDS011;4038;42.612;23.066;2022-11-15T04:35:37;46.77;;;38.27;;
7985;SDS011;4038;42.612;23.066;2022-11-15T04:38:03;45.03;;;40.27;;
7985;SDS011;4038;42.612;23.066;2022-11-15T04:40:30;44.00;;;38.33;;
7985;SDS011;4038;42.612;23.066;2022-11-15T04:42:55;46.27;;;40.27;;
7985;SDS011;4038;42.612;23.066;2022-11-15T04:45:21;45.60;;;39.90;;
7985;SDS011;4038;42.612;23.066;2022-11-15T04:47:47;47.00;;;41.93;;
7985;SDS011;4038;42.612;23.066;2022-11-15T04:50:13;46.87;;;39.63;;
7985;SDS011;4038;42.612;23.066;2022-11-15T04:52:43;55.40;;;45.47;;
7985;SDS011;4038;42.612;23.066;2022-11-15T04:55:14;63.73;;;48.53;;
7985;SDS011;4038;42.612;23.066;2022-11-15T04:57:40;68.37;;;53.30;;
7985;SDS011;4038;42.612;23.066;2022-11-15T05:00:06;60.37;;;47.27;;
7985;SDS011;4038;42.612;23.066;2022-11-15T05:02:33;61.80;;;47.53;;
7985;SDS011;4038;42.612;23.066;2022-11-15T05:05:18;46.17;;;39.73;;
7985;SDS011;4038;42.612;23.066;2022-11-15T05:07:43;42.23;;;37.73;;
7985;SDS011;4038;42.612;23.066;2022-11-15T05:10:08;44.13;;;37.47;;
7985;SDS011;4038;42.612;23.066;2022-11-15T05:12:34;43.70;;;35.17;;
7985;SDS011;4038;42.612;23.066;2022-11-15T05:15:00;46.23;;;37.90;;
7985;SDS011;4038;42.612;23.066;2022-11-15T05:17:27;40.87;;;36.50;;
7985;SDS011;4038;42.612;23.066;2022-11-15T05:19:55;45.97;;;36.60;;
7985;SDS011;4038;42.612;23.066;2022-11-15T05:22:21;46.73;;;37.13;;
7985;SDS011;4038;42.612;23.066;2022-11-15T05:24:46;37.90;;;33.80;;
7985;SDS011;4038;42.612;23.066;2022-11-15T05:27:12;47.87;;;36.37;;
7985;SDS011;4038;42.612;23.066;2022-11-15T05:29:37;83.80;;;54.40;;
7985;SDS011;4038;42.612;23.066;2022-11-15T05:32:03;74.90;;;51.27;;
7985;SDS011;4038;42.612;23.066;2022-11-15T05:34:31;57.53;;;42.03;;
7985;SDS011;4038;42.612;23.066;2022-11-15T05:36:57;66.20;;;52.60;;
7985;SDS011;4038;42.612;23.066;2022-11-15T05:39:23;66.60;;;49.47;;
7985;SDS011;4038;42.612;23.066;2022-11-15T05:41:52;62.40;;;46.97;;
7985;SDS011;4038;42.612;23.066;2022-11-15T05:44:22;55.90;;;43.03;;
7985;SDS011;4038;42.612;23.066;2022-11-15T05:46:49;50.00;;;43.60;;
7985;SDS011;4038;42.612;23.066;2022-11-15T05:49:16;49.20;;;40.77;;
7985;SDS011;4038;42.612;23.066;2022-11-15T05:51:45;55.47;;;41.57;;
7985;SDS011;4038;42.612;23.066;2022-11-15T05:54:13;66.17;;;44.20;;
7985;SDS011;4038;42.612;23.066;2022-11-15T05:56:39;54.27;;;42.77;;
7985;SDS011;4038;42.612;23.066;2022-11-15T05:59:05;53.30;;;42.60;;
7985;SDS011;4038;42.612;23.066;2022-11-15T06:01:32;56.23;;;39.53;;
7985;SDS011;4038;42.612;23.066;2022-11-15T06:03:57;45.80;;;40.07;;
7985;SDS011;4038;42.612;23.066;2022-11-15T06:06:23;46.17;;;38.57;;
7985;SDS011;4038;42.612;23.066;2022-11-15T06:08:48;44.33;;;38.23;;
7985;SDS011;4038;42.612;23.066;2022-11-15T06:11:14;44.63;;;38.23;;
7985;SDS011;4038;42.612;23.066;2022-11-15T06:13:39;44.27;;;35.13;;
7985;SDS011;4038;42.612;23.066;2022-11-15T06:16:05;37.90;;;34.07;;
7985;SDS011;4038;42.612;23.066;2022-11-15T06:18:34;35.97;;;32.20;;
7985;SDS011;4038;42.612;23.066;2022-11-15T06:20:59;36.97;;;33.37;;
7985;SDS011;4038;42.612;23.066;2022-11-15T06:23:25;36.50;;;32.87;;
7985;SDS011;4038;42.612;23.066;2022-11-15T06:25:51;36.90;;;33.27;;
7985;SDS011;4038;42.612;23.066;2022-11-15T06:28:16;39.07;;;35.07;;
7985;SDS011;4038;42.612;23.066;2022-11-15T06:30:42;46.03;;;36.50;;
7985;SDS011;4038;42.612;23.066;2022-11-15T06:33:07;40.17;;;36.20;;
7985;SDS011;4038;42.612;23.066;2022-11-15T06:35:33;47.67;;;38.77;;
7985;SDS011;4038;42.612;23.066;2022-11-15T06:38:03;41.30;;;37.00;;
7985;SDS011;4038;42.612;23.066;2022-11-15T06:40:32;50.40;;;40.57;;
7985;SDS011;4038;42.612;23.066;2022-11-15T06:43:01;52.67;;;40.97;;
7985;SDS011;4038;42.612;23.066;2022-11-15T06:45:27;50.47;;;42.57;;
7985;SDS011;4038;42.612;23.066;2022-11-15T06:47:53;62.20;;;44.67;;
7985;SDS011;4038;42.612;23.066;2022-11-15T06:50:18;58.43;;;43.37;;
7985;SDS011;4038;42.612;23.066;2022-11-15T06:52:44;64.43;;;45.60;;
7985;SDS011;4038;42.612;23.066;2022-11-15T06:55:09;54.43;;;43.70;;
7985;SDS011;4038;42.612;23.066;2022-11-15T06:57:35;72.77;;;46.20;;
7985;SDS011;4038;42.612;23.066;2022-11-15T07:00:02;76.47;;;45.60;;
7985;SDS011;4038;42.612;23.066;2022-11-15T07:02:31;85.78;;;45.15;;
7985;SDS011;4038;42.612;23.066;2022-11-15T07:04:57;80.50;;;46.88;;
7985;SDS011;4038;42.612;23.066;2022-11-15T07:07:22;90.97;;;45.63;;
7985;SDS011;4038;42.612;23.066;2022-11-15T07:09:47;94.25;;;47.83;;
7985;SDS011;4038;42.612;23.066;2022-11-15T07:12:13;71.60;;;46.50;;
7985;SDS011;4038;42.612;23.066;2022-11-15T07:14:38;66.15;;;45.83;;
7985;SDS011;4038;42.612;23.066;2022-11-15T07:17:04;63.20;;;46.15;;
7985;SDS011;4038;42.612;23.066;2022-11-15T07:19:31;62.22;;;43.53;;
7985;SDS011;4038;42.612;23.066;2022-11-15T07:21:57;59.35;;;44.63;;
7985;SDS011;4038;42.612;23.066;2022-11-15T07:24:22;73.25;;;46.55;;
7985;SDS011;4038;42.612;23.066;2022-11-15T07:26:47;64.60;;;44.63;;
7985;SDS011;4038;42.612;23.066;2022-11-15T07:29:13;65.35;;;45.08;;
7985;SDS011;4038;42.612;23.066;2022-11-15T07:31:38;54.88;;;45.05;;
7985;SDS011;4038;42.612;23.066;2022-11-15T07:34:04;71.90;;;53.33;;
7985;SDS011;4038;42.612;23.066;2022-11-15T07:36:29;81.80;;;58.10;;
7985;SDS011;4038;42.612;23.066;2022-11-15T07:38:55;67.38;;;56.47;;
7985;SDS011;4038;42.612;23.066;2022-11-15T07:41:20;69.18;;;58.20;;
7985;SDS011;4038;42.612;23.066;2022-11-15T07:43:45;71.68;;;53.95;;
7985;SDS011;4038;42.612;23.066;2022-11-15T07:46:11;72.78;;;52.38;;
7985;SDS011;4038;42.612;23.066;2022-11-15T07:48:37;61.45;;;50.10;;
7985;SDS011;4038;42.612;23.066;2022-11-15T07:51:05;70.72;;;49.35;;
7985;SDS011;4038;42.612;23.066;2022-11-15T07:53:31;54.47;;;44.47;;
7985;SDS011;4038;42.612;23.066;2022-11-15T07:55:57;60.00;;;44.97;;
7985;SDS011;4038;42.612;23.066;2022-11-15T07:58:22;50.60;;;43.45;;
7985;SDS011;4038;42.612;23.066;2022-11-15T08:00:48;51.35;;;41.40;;
7985;SDS011;4038;42.612;23.066;2022-11-15T08:03:14;50.83;;;40.33;;
7985;SDS011;4038;42.612;23.066;2022-11-15T08:05:41;47.58;;;40.80;;
7985;SDS011;4038;42.612;23.066;2022-11-15T08:08:08;48.95;;;42.03;;
7985;SDS011;4038;42.612;23.066;2022-11-15T08:10:34;51.97;;;42.33;;
7985;SDS011;4038;42.612;23.066;2022-11-15T08:13:02;57.20;;;44.08;;
7985;SDS011;4038;42.612;23.066;2022-11-15T08:15:30;50.38;;;43.28;;
7985;SDS011;4038;42.612;23.066;2022-11-15T08:17:56;51.53;;;44.13;;
7985;SDS011;4038;42.612;23.066;2022-11-15T08:20:23;48.75;;;42.55;;
7985;SDS011;4038;42.612;23.066;2022-11-15T08:22:50;50.15;;;43.85;;
7985;SDS011;4038;42.612;23.066;2022-11-15T08:25:15;47.88;;;42.45;;
7985;SDS011;4038;42.612;23.066;2022-11-15T08:27:41;47.05;;;40.70;;
7985;SDS011;4038;42.612;23.066;2022-11-15T08:30:06;47.63;;;41.20;;
7985;SDS011;4038;42.612;23.066;2022-11-15T08:32:32;52.30;;;45.05;;
7985;SDS011;4038;42.612;23.066;2022-11-15T08:34:57;58.90;;;47.75;;
7985;SDS011;4038;42.612;23.066;2022-11-15T08:37:23;63.30;;;44.33;;
7985;SDS011;4038;42.612;23.066;2022-11-15T08:39:48;54.53;;;46.33;;
7985;SDS011;4038;42.612;23.066;2022-11-15T08:42:14;56.42;;;42.80;;
7985;SDS011;4038;42.612;23.066;2022-11-15T08:44:41;55.53;;;44.25;;
7985;SDS011;4038;42.612;23.066;2022-11-15T08:47:07;49.65;;;44.35;;
7985;SDS011;4038;42.612;23.066;2022-11-15T08:49:32;49.42;;;44.20;;
7985;SDS011;4038;42.612;23.066;2022-11-15T08:51:57;55.83;;;46.33;;
7985;SDS011;4038;42.612;23.066;2022-11-15T08:54:23;58.47;;;44.80;;
7985;SDS011;4038;42.612;23.066;2022-11-15T08:56:48;51.25;;;43.67;;
7985;SDS011;4038;42.612;23.066;2022-11-15T08:59:14;58.90;;;43.63;;
7985;SDS011;4038;42.612;23.066;2022-11-15T09:01:39;52.63;;;44.15;;
7985;SDS011;4038;42.612;23.066;2022-11-15T09:04:04;54.83;;;44.63;;
7985;SDS011;4038;42.612;23.066;2022-11-15T09:06:30;55.35;;;47.40;;
7985;SDS011;4038;42.612;23.066;2022-11-15T09:08:57;61.80;;;45.92;;
7985;SDS011;4038;42.612;23.066;2022-11-15T09:11:22;60.55;;;45.92;;
7985;SDS011;4038;42.612;23.066;2022-11-15T09:13:48;58.08;;;44.40;;
7985;SDS011;4038;42.612;23.066;2022-11-15T09:16:14;53.95;;;42.67;;
7985;SDS011;4038;42.612;23.066;2022-11-15T09:18:40;50.08;;;42.30;;
7985;SDS011;4038;42.612;23.066;2022-11-15T09:21:06;45.60;;;39.75;;
7985;SDS011;4038;42.612;23.066;2022-11-15T09:23:32;46.80;;;40.50;;
7985;SDS011;4038;42.612;23.066;2022-11-15T09:25:59;45.05;;;40.17;;
7985;SDS011;4038;42.612;23.066;2022-11-15T09:28:26;58.10;;;40.97;;
7985;SDS011;4038;42.612;23.066;2022-11-15T09:30:55;45.35;;;40.38;;
7985;SDS011;4038;42.612;23.066;2022-11-15T09:33:25;46.65;;;41.10;;
7985;SDS011;4038;42.612;23.066;2022-11-15T09:35:51;45.28;;;39.03;;
7985;SDS011;4038;42.612;23.066;2022-11-15T09:38:16;48.53;;;39.33;;
7985;SDS011;4038;42.612;23.066;2022-11-15T09:40:42;49.47;;;40.35;;
7985;SDS011;4038;42.612;23.066;2022-11-15T09:51:08;48.45;;;41.53;;
7985;SDS011;4038;42.612;23.066;2022-11-15T09:53:47;46.38;;;40.38;;
7985;SDS011;4038;42.612;23.066;2022-11-15T09:56:20;45.00;;;33.80;;
7985;SDS011;4038;42.612;23.066;2022-11-15T10:01:34;35.55;;;31.75;;
7985;SDS011;4038;42.612;23.066;2022-11-15T10:04:06;35.83;;;31.70;;
7985;SDS011;4038;42.612;23.066;2022-11-15T10:06:32;40.63;;;31.95;;
7985;SDS011;4038;42.612;23.066;2022-11-15T10:11:42;35.42;;;30.77;;
7985;SDS011;4038;42.612;23.066;2022-11-15T10:14:12;33.10;;;29.92;;
7985;SDS011;4038;42.612;23.066;2022-11-15T10:16:54;37.05;;;30.33;;
7985;SDS011;4038;42.612;23.066;2022-11-15T10:22:44;34.38;;;30.20;;
7985;SDS011;4038;42.612;23.066;2022-11-15T10:28:33;30.75;;;27.85;;
7985;SDS011;4038;42.612;23.066;2022-11-15T10:30:37;34.10;;;31.02;;
7985;SDS011;4038;42.612;23.066;2022-11-15T10:35:44;33.47;;;30.65;;
7985;SDS011;4038;42.612;23.066;2022-11-15T10:38:10;32.20;;;29.42;;
7985;SDS011;4038;42.612;23.066;2022-11-15T10:40:37;31.00;;;27.88;;
7985;SDS011;4038;42.612;23.066;2022-11-15T10:45:35;35.50;;;29.88;;
7985;SDS011;4038;42.612;23.066;2022-11-15T10:50:37;33.30;;;30.48;;
7985;SDS011;4038;42.612;23.066;2022-11-15T10:53:28;33.17;;;30.08;;
7985;SDS011;4038;42.612;23.066;2022-11-15T10:55:58;32.63;;;29.70;;
7985;SDS011;4038;42.612;23.066;2022-11-15T11:00:52;32.75;;;29.52;;
7985;SDS011;4038;42.612;23.066;2022-11-15T11:03:27;33.78;;;30.45;;
7985;SDS011;4038;42.612;23.066;2022-11-15T11:06:29;34.40;;;31.42;;
7985;SDS011;4038;42.612;23.066;2022-11-15T11:11:24;33.13;;;30.17;;
7985;SDS011;4038;42.612;23.066;2022-11-15T11:13:50;33.60;;;30.45;;
7985;SDS011;4038;42.612;23.066;2022-11-15T11:16:30;33.22;;;30.20;;
7985;SDS011;4038;42.612;23.066;2022-11-15T11:19:12;33.47;;;30.58;;
7985;SDS011;4038;42.612;23.066;2022-11-15T11:21:58;32.72;;;29.75;;
7985;SDS011;4038;42.612;23.066;2022-11-15T11:30:03;33.33;;;30.40;;
7985;SDS011;4038;42.612;23.066;2022-11-15T11:32:39;32.33;;;29.52;;
7985;SDS011;4038;42.612;23.066;2022-11-15T11:35:13;32.38;;;29.42;;
7985;SDS011;4038;42.612;23.066;2022-11-15T11:42:48;32.03;;;28.98;;
7985;SDS011;4038;42.612;23.066;2022-11-15T11:45:22;32.83;;;29.67;;
7985;SDS011;4038;42.612;23.066;2022-11-15T11:48:42;33.85;;;31.20;;
7985;SDS011;4038;42.612;23.066;2022-11-15T11:51:10;30.55;;;28.05;;
7985;SDS011;4038;42.612;23.066;2022-11-15T11:56:50;30.95;;;27.80;;
7985;SDS011;4038;42.612;23.066;2022-11-15T11:59:21;29.35;;;26.88;;
7985;SDS011;4038;42.612;23.066;2022-11-15T12:01:47;30.92;;;28.27;;
7985;SDS011;4038;42.612;23.066;2022-11-15T12:06:42;32.05;;;29.25;;
7985;SDS011;4038;42.612;23.066;2022-11-15T12:09:17;31.40;;;28.90;;
7985;SDS011;4038;42.612;23.066;2022-11-15T12:11:55;32.67;;;29.75;;
7985;SDS011;4038;42.612;23.066;2022-11-15T12:16:57;31.02;;;28.33;;
7985;SDS011;4038;42.612;23.066;2022-11-15T12:19:23;31.77;;;29.10;;
7985;SDS011;4038;42.612;23.066;2022-11-15T12:24:17;30.85;;;28.42;;
7985;SDS011;4038;42.612;23.066;2022-11-15T12:29:44;33.15;;;29.77;;
7985;SDS011;4038;42.612;23.066;2022-11-15T12:35:35;33.58;;;30.60;;
7985;SDS011;4038;42.612;23.066;2022-11-15T12:38:03;32.70;;;29.95;;
7985;SDS011;4038;42.612;23.066;2022-11-15T12:40:30;31.40;;;28.80;;
7985;SDS011;4038;42.612;23.066;2022-11-15T12:45:56;31.58;;;28.95;;
7985;SDS011;4038;42.612;23.066;2022-11-15T12:51:00;31.00;;;28.40;;
7985;SDS011;4038;42.612;23.066;2022-11-15T12:53:30;31.02;;;28.50;;
7985;SDS011;4038;42.612;23.066;2022-11-15T12:58:41;30.45;;;27.73;;
7985;SDS011;4038;42.612;23.066;2022-11-15T13:04:38;31.10;;;28.58;;
7985;SDS011;4038;42.612;23.066;2022-11-15T13:11:58;30.08;;;27.58;;
7985;SDS011;4038;42.612;23.066;2022-11-15T13:30:34;29.13;;;27.00;;
7985;SDS011;4038;42.612;23.066;2022-11-15T13:33:07;28.27;;;25.98;;
7985;SDS011;4038;42.612;23.066;2022-11-15T13:35:36;28.15;;;25.75;;
7985;SDS011;4038;42.612;23.066;2022-11-15T13:38:06;27.27;;;25.10;;
7985;SDS011;4038;42.612;23.066;2022-11-15T13:40:42;27.20;;;25.00;;
7985;SDS011;4038;42.612;23.066;2022-11-15T13:43:41;27.63;;;25.45;;
7985;SDS011;4038;42.612;23.066;2022-11-15T13:46:42;28.35;;;25.75;;
7985;SDS011;4038;42.612;23.066;2022-11-15T13:49:04;28.73;;;26.38;;
7985;SDS011;4038;42.612;23.066;2022-11-15T13:56:55;30.33;;;27.58;;
7985;SDS011;4038;42.612;23.066;2022-11-15T13:59:25;38.22;;;35.03;;
7985;SDS011;4038;42.612;23.066;2022-11-15T14:01:56;32.05;;;29.35;;
7985;SDS011;4038;42.612;23.066;2022-11-15T14:04:26;29.15;;;26.65;;
7985;SDS011;4038;42.612;23.066;2022-11-15T14:06:58;29.17;;;26.80;;
7985;SDS011;4038;42.612;23.066;2022-11-15T14:09:30;31.98;;;29.48;;
7985;SDS011;4038;42.612;23.066;2022-11-15T14:11:57;30.42;;;27.83;;
7985;SDS011;4038;42.612;23.066;2022-11-15T14:14:24;28.10;;;25.83;;
7985;SDS011;4038;42.612;23.066;2022-11-15T14:16:52;27.90;;;25.77;;
7985;SDS011;4038;42.612;23.066;2022-11-15T14:24:35;28.90;;;26.38;;
7985;SDS011;4038;42.612;23.066;2022-11-15T14:29:45;29.55;;;26.73;;
7985;SDS011;4038;42.612;23.066;2022-11-15T14:32:16;30.27;;;27.48;;
7985;SDS011;4038;42.612;23.066;2022-11-15T14:34:44;29.83;;;27.30;;
7985;SDS011;4038;42.612;23.066;2022-11-15T14:37:16;31.77;;;28.38;;
7985;SDS011;4038;42.612;23.066;2022-11-15T14:39:45;30.65;;;27.52;;
7985;SDS011;4038;42.612;23.066;2022-11-15T14:42:11;30.73;;;27.58;;
7985;SDS011;4038;42.612;23.066;2022-11-15T14:44:36;30.25;;;26.50;;
7985;SDS011;4038;42.612;23.066;2022-11-15T14:47:02;29.27;;;25.38;;
7985;SDS011;4038;42.612;23.066;2022-11-15T14:49:27;28.50;;;25.52;;
7985;SDS011;4038;42.612;23.066;2022-11-15T14:51:52;36.00;;;25.73;;
7985;SDS011;4038;42.612;23.066;2022-11-15T14:54:18;36.80;;;25.35;;
7985;SDS011;4038;42.612;23.066;2022-11-15T14:56:43;29.67;;;26.63;;
7985;SDS011;4038;42.612;23.066;2022-11-15T14:59:08;28.77;;;25.92;;
7985;SDS011;4038;42.612;23.066;2022-11-15T15:01:34;36.60;;;27.13;;
7985;SDS011;4038;42.612;23.066;2022-11-15T15:03:59;34.45;;;25.13;;
7985;SDS011;4038;42.612;23.066;2022-11-15T15:06:25;36.55;;;26.00;;
7985;SDS011;4038;42.612;23.066;2022-11-15T15:08:50;33.53;;;25.67;;
7985;SDS011;4038;42.612;23.066;2022-11-15T15:11:21;32.55;;;24.92;;
7985;SDS011;4038;42.612;23.066;2022-11-15T15:13:48;35.30;;;25.88;;
7985;SDS011;4038;42.612;23.066;2022-11-15T15:16:14;35.97;;;27.63;;
7985;SDS011;4038;42.612;23.066;2022-11-15T15:18:40;36.53;;;27.38;;
7985;SDS011;4038;42.612;23.066;2022-11-15T15:21:18;32.35;;;25.50;;
7985;SDS011;4038;42.612;23.066;2022-11-15T15:23:46;29.67;;;25.88;;
7985;SDS011;4038;42.612;23.066;2022-11-15T15:26:12;31.55;;;28.02;;
7985;SDS011;4038;42.612;23.066;2022-11-15T15:28:37;29.80;;;27.02;;
7985;SDS011;4038;42.612;23.066;2022-11-15T15:31:04;28.55;;;26.15;;
7985;SDS011;4038;42.612;23.066;2022-11-15T15:33:29;28.85;;;25.90;;
7985;SDS011;4038;42.612;23.066;2022-11-15T15:35:55;28.23;;;25.50;;
7985;SDS011;4038;42.612;23.066;2022-11-15T15:38:21;28.25;;;25.30;;
7985;SDS011;4038;42.612;23.066;2022-11-15T15:40:46;29.02;;;26.60;;
7985;SDS011;4038;42.612;23.066;2022-11-15T15:43:12;30.27;;;27.30;;
7985;SDS011;4038;42.612;23.066;2022-11-15T15:45:38;31.73;;;28.27;;
7985;SDS011;4038;42.612;23.066;2022-11-15T15:48:04;30.70;;;27.60;;
7985;SDS011;4038;42.612;23.066;2022-11-15T15:50:33;31.60;;;27.63;;
7985;SDS011;4038;42.612;23.066;2022-11-15T15:53:00;31.92;;;28.80;;
7985;SDS011;4038;42.612;23.066;2022-11-15T15:55:27;30.60;;;27.67;;
7985;SDS011;4038;42.612;23.066;2022-11-15T15:57:53;32.17;;;28.52;;
7985;SDS011;4038;42.612;23.066;2022-11-15T16:00:20;30.65;;;27.52;;
7985;SDS011;4038;42.612;23.066;2022-11-15T16:02:48;32.60;;;28.90;;
7985;SDS011;4038;42.612;23.066;2022-11-15T16:05:14;33.60;;;30.40;;
7985;SDS011;4038;42.612;23.066;2022-11-15T16:07:39;34.38;;;30.98;;
7985;SDS011;4038;42.612;23.066;2022-11-15T16:10:16;34.13;;;30.33;;
7985;SDS011;4038;42.612;23.066;2022-11-15T16:12:44;37.92;;;30.42;;
7985;SDS011;4038;42.612;23.066;2022-11-15T16:15:09;37.45;;;30.27;;
7985;SDS011;4038;42.612;23.066;2022-11-15T16:17:37;35.47;;;31.65;;
7985;SDS011;4038;42.612;23.066;2022-11-15T16:20:05;35.45;;;31.65;;
7985;SDS011;4038;42.612;23.066;2022-11-15T16:22:31;35.97;;;31.80;;
7985;SDS011;4038;42.612;23.066;2022-11-15T16:24:57;34.53;;;30.83;;
7985;SDS011;4038;42.612;23.066;2022-11-15T16:27:22;35.53;;;30.95;;
7985;SDS011;4038;42.612;23.066;2022-11-15T16:29:48;36.63;;;32.28;;
7985;SDS011;4038;42.612;23.066;2022-11-15T16:32:14;34.35;;;30.90;;
7985;SDS011;4038;42.612;23.066;2022-11-15T16:34:39;36.67;;;30.30;;
7985;SDS011;4038;42.612;23.066;2022-11-15T16:37:05;32.50;;;29.27;;
7985;SDS011;4038;42.612;23.066;2022-11-15T16:39:33;33.53;;;30.15;;
7985;SDS011;4038;42.612;23.066;2022-11-15T16:41:59;34.08;;;30.98;;
7985;SDS011;4038;42.612;23.066;2022-11-15T16:44:25;34.45;;;31.05;;
7985;SDS011;4038;42.612;23.066;2022-11-15T16:46:51;38.60;;;31.85;;
7985;SDS011;4038;42.612;23.066;2022-11-15T16:49:17;36.80;;;32.92;;
7985;SDS011;4038;42.612;23.066;2022-11-15T16:51:44;36.67;;;32.50;;
7985;SDS011;4038;42.612;23.066;2022-11-15T16:54:11;36.33;;;32.53;;
7985;SDS011;4038;42.612;23.066;2022-11-15T16:56:37;38.03;;;33.10;;
7985;SDS011;4038;42.612;23.066;2022-11-15T16:59:03;35.95;;;31.77;;
7985;SDS011;4038;42.612;23.066;2022-11-15T17:01:30;37.88;;;33.22;;
7985;SDS011;4038;42.612;23.066;2022-11-15T17:03:57;40.20;;;36.17;;
7985;SDS011;4038;42.612;23.066;2022-11-15T17:06:23;46.00;;;36.40;;
7985;SDS011;4038;42.612;23.066;2022-11-15T17:08:49;47.17;;;36.65;;
7985;SDS011;4038;42.612;23.066;2022-11-15T17:11:16;39.80;;;35.83;;
7985;SDS011;4038;42.612;23.066;2022-11-15T17:13:44;40.97;;;34.17;;
7985;SDS011;4038;42.612;23.066;2022-11-15T17:16:11;38.75;;;34.00;;
7985;SDS011;4038;42.612;23.066;2022-11-15T17:18:39;35.75;;;32.42;;